createdAt,value
2024-02-22T00:00:21.919Z,10.13
2024-02-22T00:02:22.264Z,10.15
2024-02-22T00:04:22.596Z,10.09
2024-02-22T00:06:22.965Z,10.05
2024-02-22T00:08:23.286Z,9.99
2024-02-22T00:10:23.596Z,9.98
2024-02-22T00:12:23.929Z,9.99
2024-02-22T00:14:24.163Z,9.95
2024-02-22T00:16:24.595Z,9.87
2024-02-22T00:18:25.133Z,9.79
2024-02-22T00:20:25.599Z,9.66
2024-02-22T00:22:26.021Z,9.50
2024-02-22T00:24:26.317Z,9.31
2024-02-22T00:26:26.619Z,9.21
2024-02-22T00:28:27.158Z,9.10
2024-02-22T00:30:27.408Z,9.00
2024-02-22T00:32:27.754Z,8.92
2024-02-22T00:34:28.211Z,8.82
2024-02-22T00:36:28.545Z,8.79
2024-02-22T00:38:28.812Z,8.74
2024-02-22T00:40:29.169Z,8.74
2024-02-22T00:42:29.468Z,8.73
2024-02-22T00:44:29.897Z,8.67
2024-02-22T00:46:30.291Z,8.63
2024-02-22T00:48:30.788Z,8.63
2024-02-22T00:50:31.154Z,8.63
2024-02-22T00:52:31.546Z,8.61
2024-02-22T00:54:36.647Z,8.64
2024-02-22T00:56:36.937Z,8.61
2024-02-22T00:58:37.233Z,8.63
2024-02-22T01:00:37.549Z,8.63
2024-02-22T01:02:37.870Z,8.61
2024-02-22T01:04:38.169Z,8.58
2024-02-22T01:06:38.513Z,8.56
2024-02-22T01:08:38.903Z,8.58
2024-02-22T01:10:39.188Z,8.60
2024-02-22T01:12:39.505Z,8.58
2024-02-22T01:14:39.807Z,8.61
2024-02-22T01:16:40.168Z,8.56
2024-02-22T01:18:40.515Z,8.58
2024-02-22T01:20:40.838Z,8.61
2024-02-22T01:22:41.212Z,8.63
2024-02-22T01:24:41.568Z,8.60
2024-02-22T01:26:41.879Z,8.56
2024-02-22T01:28:42.195Z,8.61
2024-02-22T01:30:42.503Z,8.56
2024-02-22T01:32:42.952Z,8.61
2024-02-22T01:34:43.315Z,8.61
2024-02-22T01:36:43.627Z,8.61
2024-02-22T01:38:43.948Z,8.61
2024-02-22T01:40:44.858Z,8.64
2024-02-22T01:42:45.092Z,8.63
2024-02-22T01:44:45.382Z,8.58
2024-02-22T01:46:45.812Z,8.66
2024-02-22T01:48:46.206Z,8.63
2024-02-22T01:50:46.467Z,8.63
2024-02-22T01:52:46.846Z,8.64
2024-02-22T01:54:47.123Z,8.61
2024-02-22T01:56:47.395Z,8.61
2024-02-22T01:58:47.704Z,8.66
2024-02-22T02:00:47.963Z,8.66
2024-02-22T02:02:48.292Z,8.66
2024-02-22T02:04:48.610Z,8.66
2024-02-22T02:06:48.996Z,8.69
2024-02-22T02:08:49.448Z,8.69
2024-02-22T02:10:49.854Z,8.69
2024-02-22T02:12:50.162Z,8.70
2024-02-22T02:14:50.437Z,8.69
2024-02-22T02:16:50.727Z,8.69
2024-02-22T02:18:51.015Z,8.69
2024-02-22T02:20:51.348Z,8.71
2024-02-22T02:22:51.678Z,8.73
2024-02-22T02:24:51.943Z,8.74
2024-02-22T02:26:52.361Z,8.76
2024-02-22T02:28:52.672Z,8.78
2024-02-22T02:30:52.974Z,8.81
2024-02-22T02:32:53.360Z,8.85
2024-02-22T02:34:53.718Z,8.92
2024-02-22T02:36:54.000Z,8.99
2024-02-22T02:38:54.307Z,8.99
2024-02-22T02:40:54.655Z,9.02
2024-02-22T02:42:55.231Z,9.00
2024-02-22T02:44:55.616Z,9.00
2024-02-22T02:46:55.926Z,8.99
2024-02-22T02:49:01.102Z,9.02
2024-02-22T02:51:01.449Z,9.02
2024-02-22T02:53:01.867Z,9.02
2024-02-22T02:55:02.435Z,9.02
2024-02-22T02:57:03.026Z,9.02
2024-02-22T02:59:03.367Z,9.00
2024-02-22T03:01:08.524Z,9.00
2024-02-22T03:03:08.786Z,9.02
2024-02-22T03:05:09.233Z,8.97
2024-02-22T03:07:09.525Z,8.97
2024-02-22T03:09:09.807Z,8.97
2024-02-22T03:11:10.231Z,8.94
2024-02-22T03:13:10.545Z,8.95
2024-02-22T03:15:10.821Z,8.94
2024-02-22T03:17:11.306Z,8.99
2024-02-22T03:19:11.634Z,8.97
2024-02-22T03:21:11.914Z,9.00
2024-02-22T03:23:12.251Z,8.97
2024-02-22T03:25:12.482Z,8.95
2024-02-22T03:27:12.846Z,8.99
2024-02-22T03:29:13.154Z,8.99
2024-02-22T03:31:13.436Z,9.00
2024-02-22T03:33:13.789Z,9.04
2024-02-22T03:35:14.127Z,9.04
2024-02-22T03:37:14.480Z,9.04
2024-02-22T03:39:14.777Z,9.04
2024-02-22T03:41:15.094Z,9.04
2024-02-22T03:43:15.431Z,9.08
2024-02-22T03:45:15.685Z,9.04
2024-02-22T03:47:16.061Z,9.06
2024-02-22T03:49:16.472Z,9.06
2024-02-22T03:51:16.764Z,9.06
2024-02-22T03:53:17.962Z,9.06
2024-02-22T03:55:18.214Z,9.04
2024-02-22T03:57:18.521Z,9.04
2024-02-22T03:59:18.978Z,9.06
2024-02-22T04:01:19.307Z,9.03
2024-02-22T04:03:19.588Z,9.00
2024-02-22T04:05:19.950Z,9.02
2024-02-22T04:07:20.310Z,9.03
2024-02-22T04:09:20.611Z,9.04
2024-02-22T04:11:21.119Z,9.02
2024-02-22T04:13:26.109Z,9.04
2024-02-22T04:15:26.411Z,9.03
2024-02-22T04:17:26.733Z,9.08
2024-02-22T04:19:27.074Z,9.02
2024-02-22T04:21:27.400Z,9.11
2024-02-22T04:23:27.624Z,9.04
2024-02-22T04:25:28.002Z,9.08
2024-02-22T04:27:33.234Z,9.10
2024-02-22T04:29:33.607Z,9.06
2024-02-22T04:31:33.966Z,9.08
2024-02-22T04:33:34.267Z,9.08
2024-02-22T04:35:34.671Z,9.08
2024-02-22T04:37:35.008Z,9.11
2024-02-22T04:39:35.319Z,9.13
2024-02-22T04:41:35.714Z,9.06
2024-02-22T04:43:36.059Z,9.11
2024-02-22T04:45:36.354Z,9.08
2024-02-22T04:47:36.777Z,9.11
2024-02-22T04:49:37.116Z,9.14
2024-02-22T04:51:37.660Z,9.14
2024-02-22T04:53:37.954Z,9.14
2024-02-22T04:55:38.248Z,9.16
2024-02-22T04:57:38.590Z,9.16
2024-02-22T04:59:38.947Z,9.14
2024-02-22T05:01:44.196Z,9.16
2024-02-22T05:03:49.280Z,9.14
2024-02-22T05:05:49.630Z,9.18
2024-02-22T05:07:49.987Z,9.22
2024-02-22T05:09:50.259Z,9.18
2024-02-22T05:11:51.168Z,9.19
2024-02-22T05:13:51.482Z,9.19
2024-02-22T05:15:51.996Z,9.23
2024-02-22T05:18:01.000Z,9.19
2024-02-22T05:20:02.488Z,9.21
2024-02-22T05:22:02.776Z,9.22
2024-02-22T05:24:07.988Z,9.22
2024-02-22T05:26:08.384Z,9.21
2024-02-22T05:28:08.666Z,9.23
2024-02-22T05:30:09.459Z,9.19
2024-02-22T05:32:09.796Z,9.22
2024-02-22T05:34:10.151Z,9.26
2024-02-22T05:36:10.436Z,9.23
2024-02-22T05:38:10.766Z,9.26
2024-02-22T05:40:11.027Z,9.26
2024-02-22T05:42:11.366Z,9.23
2024-02-22T05:44:11.712Z,9.28
2024-02-22T05:46:12.933Z,9.26
2024-02-22T05:48:13.349Z,9.26
2024-02-22T05:50:13.675Z,9.28
2024-02-22T05:52:13.960Z,9.28
2024-02-22T05:54:14.246Z,9.31
2024-02-22T05:56:14.572Z,9.29
2024-02-22T05:58:14.916Z,9.34
2024-02-22T06:00:15.243Z,9.31
2024-02-22T06:02:15.644Z,9.34
2024-02-22T06:04:16.009Z,9.31
2024-02-22T06:06:16.462Z,9.32
2024-02-22T06:08:16.826Z,9.34
2024-02-22T06:10:17.114Z,9.31
2024-02-22T06:12:17.439Z,9.34
2024-02-22T06:14:17.812Z,9.36
2024-02-22T06:16:18.150Z,9.31
2024-02-22T06:18:18.527Z,9.36
2024-02-22T06:20:18.951Z,9.29
2024-02-22T06:22:19.275Z,9.32
2024-02-22T06:24:19.577Z,9.34
2024-02-22T06:26:19.873Z,9.36
2024-02-22T06:28:25.051Z,9.37
2024-02-22T06:30:25.318Z,9.37
2024-02-22T06:32:25.718Z,9.37
2024-02-22T06:34:26.053Z,9.40
2024-02-22T06:36:26.320Z,9.40
2024-02-22T06:38:26.614Z,9.34
2024-02-22T06:40:26.886Z,9.37
2024-02-22T06:42:27.174Z,9.41
2024-02-22T06:44:27.491Z,9.43
2024-02-22T06:46:27.826Z,9.40
2024-02-22T06:48:28.233Z,9.44
2024-02-22T06:50:28.594Z,9.41
2024-02-22T06:52:28.922Z,9.40
2024-02-22T06:54:34.077Z,9.44
2024-02-22T06:56:34.386Z,9.46
2024-02-22T06:58:34.699Z,9.43
2024-02-22T07:00:35.056Z,9.46
2024-02-22T07:02:35.551Z,9.48
2024-02-22T07:04:35.984Z,9.47
2024-02-22T07:06:36.402Z,9.47
2024-02-22T07:08:38.474Z,9.47
2024-02-22T07:10:38.758Z,9.54
2024-02-22T07:12:39.044Z,9.51
2024-02-22T07:14:39.322Z,9.55
2024-02-22T07:16:39.782Z,9.55
2024-02-22T07:18:40.187Z,9.55
2024-02-22T07:20:40.517Z,9.61
2024-02-22T07:22:43.103Z,9.62
2024-02-22T07:24:43.478Z,9.64
2024-02-22T07:26:43.742Z,9.61
2024-02-22T07:28:44.083Z,9.65
2024-02-22T07:30:44.449Z,9.65
2024-02-22T07:32:44.793Z,9.64
2024-02-22T07:34:45.296Z,9.68
2024-02-22T07:36:45.604Z,9.66
2024-02-22T07:38:45.895Z,9.66
2024-02-22T07:40:46.232Z,9.69
2024-02-22T07:42:46.513Z,9.69
2024-02-22T07:44:46.881Z,9.74
2024-02-22T07:46:47.215Z,9.76
2024-02-22T07:48:48.543Z,9.79
2024-02-22T07:50:48.840Z,9.79
2024-02-22T07:52:49.269Z,9.82
2024-02-22T07:54:49.556Z,9.82
2024-02-22T07:56:49.888Z,9.82
2024-02-22T07:58:50.225Z,9.86
2024-02-22T08:00:50.539Z,9.89
2024-02-22T08:02:50.820Z,9.87
2024-02-22T08:04:51.283Z,9.92
2024-02-22T08:06:51.741Z,9.95
2024-02-22T08:08:52.004Z,9.94
2024-02-22T08:10:52.346Z,9.95
2024-02-22T08:12:52.636Z,9.94
2024-02-22T08:14:52.982Z,9.95
2024-02-22T08:16:53.340Z,9.98
2024-02-22T08:18:53.658Z,9.98
2024-02-22T08:20:54.004Z,10.01
2024-02-22T08:22:54.433Z,10.02
2024-02-22T08:24:54.750Z,10.05
2024-02-22T08:26:55.159Z,10.07
2024-02-22T08:28:55.494Z,10.09
2024-02-22T08:30:55.800Z,10.12
2024-02-22T08:32:56.304Z,10.15
2024-02-22T08:34:56.694Z,10.16
2024-02-22T08:36:57.028Z,10.16
2024-02-22T08:38:57.369Z,10.19
2024-02-22T08:40:57.756Z,10.20
2024-02-22T08:42:58.025Z,10.25
2024-02-22T08:44:58.332Z,10.26
2024-02-22T08:46:58.607Z,10.31
2024-02-22T08:48:58.935Z,10.28
2024-02-22T08:50:59.481Z,10.34
2024-02-22T08:52:59.958Z,10.31
2024-02-22T08:55:00.339Z,10.33
2024-02-22T08:57:00.606Z,10.33
2024-02-22T08:59:00.978Z,10.35
2024-02-22T09:01:01.283Z,10.34
2024-02-22T09:03:01.585Z,10.35
2024-02-22T09:05:03.377Z,10.42
2024-02-22T09:07:04.029Z,10.41
2024-02-22T09:09:09.016Z,10.44
2024-02-22T09:11:09.506Z,10.46
2024-02-22T09:13:09.816Z,10.46
2024-02-22T09:15:10.131Z,10.51
2024-02-22T09:17:10.432Z,10.53
2024-02-22T09:19:10.936Z,10.59
2024-02-22T09:21:11.253Z,10.64
2024-02-22T09:23:11.537Z,10.67
2024-02-22T09:25:12.070Z,10.68
2024-02-22T09:27:12.462Z,10.71
2024-02-22T09:29:12.802Z,10.71
2024-02-22T09:31:13.069Z,10.75
2024-02-22T09:33:13.411Z,10.69
2024-02-22T09:35:13.841Z,10.71
2024-02-22T09:37:14.194Z,10.71
2024-02-22T09:39:14.470Z,10.71
2024-02-22T09:41:14.839Z,10.72
2024-02-22T09:43:15.152Z,10.72
2024-02-22T09:45:15.433Z,10.71
2024-02-22T09:47:15.773Z,10.75
2024-02-22T09:49:16.118Z,10.81
2024-02-22T09:51:16.472Z,10.86
2024-02-22T09:53:16.842Z,10.89
2024-02-22T09:55:21.955Z,10.87
2024-02-22T09:57:22.253Z,10.94
2024-02-22T09:59:22.628Z,10.97
2024-02-22T10:01:22.919Z,10.96
2024-02-22T10:03:23.251Z,10.96
2024-02-22T10:05:23.753Z,10.99
2024-02-22T10:07:24.072Z,10.94
2024-02-22T10:09:24.357Z,11.00
2024-02-22T10:11:24.701Z,10.96
2024-02-22T10:13:25.195Z,11.02
2024-02-22T10:15:25.567Z,10.99
2024-02-22T10:17:25.892Z,10.99
2024-02-22T10:19:26.218Z,10.99
2024-02-22T10:21:26.519Z,10.97
2024-02-22T10:23:26.906Z,10.99
2024-02-22T10:25:27.177Z,10.99
2024-02-22T10:27:27.467Z,11.02
2024-02-22T10:29:27.787Z,11.02
2024-02-22T10:31:28.119Z,11.05
2024-02-22T10:33:28.519Z,11.04
2024-02-22T10:35:33.664Z,11.02
2024-02-22T10:37:34.062Z,11.05
2024-02-22T10:39:34.344Z,11.10
2024-02-22T10:41:34.647Z,11.10
2024-02-22T10:43:34.980Z,11.14
2024-02-22T10:45:35.615Z,11.12
2024-02-22T10:47:35.978Z,11.12
2024-02-22T10:49:36.304Z,11.18
2024-02-22T10:51:36.617Z,11.15
2024-02-22T10:53:36.915Z,11.19
2024-02-22T10:55:37.249Z,11.17
2024-02-22T10:57:37.502Z,11.14
2024-02-22T10:59:37.815Z,11.11
2024-02-22T11:01:38.073Z,11.12
2024-02-22T11:03:38.413Z,11.14
2024-02-22T11:05:38.770Z,11.15
2024-02-22T11:07:39.161Z,11.15
2024-02-22T11:09:39.484Z,11.18
2024-02-22T11:11:39.800Z,11.17
2024-02-22T11:13:40.182Z,11.22
2024-02-22T11:15:40.449Z,11.18
2024-02-22T11:17:40.838Z,11.23
2024-02-22T11:19:41.175Z,11.25
2024-02-22T11:21:41.395Z,11.23
2024-02-22T11:23:41.842Z,11.25
2024-02-22T11:25:42.404Z,11.26
2024-02-22T11:27:42.753Z,11.19
2024-02-22T11:29:43.034Z,11.18
2024-02-22T11:31:43.422Z,11.19
2024-02-22T11:33:43.770Z,11.23
2024-02-22T11:35:44.580Z,11.19
2024-02-22T11:37:44.860Z,11.19
2024-02-22T11:39:45.187Z,11.26
2024-02-22T11:41:45.471Z,11.26
2024-02-22T11:43:45.808Z,11.29
2024-02-22T11:45:46.075Z,11.32
2024-02-22T11:47:46.479Z,11.30
2024-02-22T11:49:46.862Z,11.35
2024-02-22T11:51:47.156Z,11.37
2024-02-22T11:53:47.522Z,11.40
2024-02-22T11:55:47.913Z,11.40
2024-02-22T11:57:48.590Z,11.41
2024-02-22T11:59:48.915Z,11.43
2024-02-22T12:01:56.021Z,11.40
2024-02-22T12:03:55.376Z,11.45
2024-02-22T12:05:55.927Z,11.50
2024-02-22T12:07:56.339Z,11.51
2024-02-22T12:09:56.652Z,11.54
2024-02-22T12:11:57.052Z,11.52
2024-02-22T12:13:57.386Z,11.54
2024-02-22T12:15:57.817Z,11.54
2024-02-22T12:17:58.143Z,11.54
2024-02-22T12:19:58.464Z,11.55
2024-02-22T12:21:58.733Z,11.55
2024-02-22T12:23:59.062Z,11.65
2024-02-22T12:25:59.343Z,11.66
2024-02-22T12:27:59.623Z,11.69
2024-02-22T12:29:59.934Z,11.69
2024-02-22T12:32:00.283Z,11.68
2024-02-22T12:34:00.802Z,11.72
2024-02-22T12:36:01.090Z,11.75
2024-02-22T12:38:01.396Z,11.75
2024-02-22T12:40:01.713Z,11.75
2024-02-22T12:42:01.970Z,11.78
2024-02-22T12:44:02.398Z,11.84
2024-02-22T12:46:02.659Z,11.84
2024-02-22T12:48:03.162Z,11.80
2024-02-22T12:50:08.274Z,11.75
2024-02-22T12:52:08.650Z,11.73
2024-02-22T12:54:08.928Z,11.69
2024-02-22T12:56:09.265Z,11.65
2024-02-22T12:58:09.562Z,11.65
2024-02-22T13:00:09.855Z,11.65
2024-02-22T13:02:10.193Z,11.60
2024-02-22T13:04:10.522Z,11.57
2024-02-22T13:06:10.835Z,11.59
2024-02-22T13:08:15.762Z,11.52
2024-02-22T13:10:16.313Z,11.54
2024-02-22T13:12:16.696Z,11.52
2024-02-22T13:14:17.317Z,11.51
2024-02-22T13:16:17.684Z,11.54
2024-02-22T13:18:18.023Z,11.55
2024-02-22T13:20:18.360Z,11.54
2024-02-22T13:22:18.642Z,11.55
2024-02-22T13:24:18.914Z,11.51
2024-02-22T13:26:19.250Z,11.55
2024-02-22T13:28:19.664Z,11.54
2024-02-22T13:30:19.936Z,11.52
2024-02-22T13:32:20.396Z,11.51
2024-02-22T13:34:20.943Z,11.51
2024-02-22T13:36:21.231Z,11.50
2024-02-22T13:38:21.650Z,11.52
2024-02-22T13:40:22.012Z,11.54
2024-02-22T13:42:22.344Z,11.52
2024-02-22T13:44:26.830Z,11.48
2024-02-22T13:46:27.830Z,11.50
2024-02-22T13:48:28.148Z,11.51
2024-02-22T13:50:28.429Z,11.48
2024-02-22T13:52:28.857Z,11.51
2024-02-22T13:54:29.170Z,11.50
2024-02-22T13:56:29.559Z,11.48
2024-02-22T13:58:29.820Z,11.48
2024-02-22T14:00:30.626Z,11.54
2024-02-22T14:02:31.032Z,11.51
2024-02-22T14:04:31.455Z,11.59
2024-02-22T14:06:31.816Z,11.54
2024-02-22T14:08:32.145Z,11.52
2024-02-22T14:10:32.601Z,11.50
2024-02-22T14:12:32.973Z,11.51
2024-02-22T14:14:33.220Z,11.52
2024-02-22T14:16:33.521Z,11.47
2024-02-22T14:18:33.814Z,11.50
2024-02-22T14:20:34.251Z,11.51
2024-02-22T14:22:34.500Z,11.48
2024-02-22T14:24:35.058Z,11.48
2024-02-22T14:26:35.317Z,11.48
2024-02-22T14:28:35.645Z,11.51
2024-02-22T14:30:35.930Z,11.52
2024-02-22T14:32:36.300Z,11.51
2024-02-22T14:34:36.696Z,11.54
2024-02-22T14:36:37.002Z,11.55
2024-02-22T14:38:37.357Z,11.51
2024-02-22T14:40:37.661Z,11.51
2024-02-22T14:42:37.912Z,11.50
2024-02-22T14:44:38.392Z,11.47
2024-02-22T14:46:38.700Z,11.45
2024-02-22T14:48:42.348Z,11.41
2024-02-22T14:50:44.330Z,11.43
2024-02-22T14:52:44.617Z,11.37
2024-02-22T14:54:44.922Z,11.33
2024-02-22T14:56:46.201Z,11.33
2024-02-22T14:58:46.584Z,11.35
2024-02-22T15:00:47.121Z,11.37
2024-02-22T15:02:49.197Z,11.36
2024-02-22T15:04:49.701Z,11.35
2024-02-22T15:06:50.182Z,11.37
2024-02-22T15:08:50.512Z,11.40
2024-02-22T15:10:50.858Z,11.36
2024-02-22T15:12:51.148Z,11.37
2024-02-22T15:14:51.462Z,11.41
2024-02-22T15:16:52.129Z,11.41
2024-02-22T15:18:52.456Z,11.44
2024-02-22T15:20:52.981Z,11.47
2024-02-22T15:22:53.271Z,11.43
2024-02-22T15:24:53.537Z,11.43
2024-02-22T15:26:53.932Z,11.43
2024-02-22T15:28:54.203Z,11.40
2024-02-22T15:30:56.360Z,11.36
2024-02-22T15:32:58.325Z,11.40
2024-02-22T15:34:58.953Z,11.41
2024-02-22T15:36:59.269Z,11.41
2024-02-22T15:38:59.526Z,11.40
2024-02-22T15:40:59.937Z,11.37
2024-02-22T15:43:00.253Z,11.35
2024-02-22T15:45:00.559Z,11.32
2024-02-22T15:47:00.853Z,11.32
2024-02-22T15:49:01.272Z,11.30
2024-02-22T15:51:01.627Z,11.30
2024-02-22T15:53:02.074Z,11.29
2024-02-22T15:55:02.378Z,11.27
2024-02-22T15:57:02.784Z,11.26
2024-02-22T15:59:03.191Z,11.23
2024-02-22T16:01:03.557Z,11.25
2024-02-22T16:03:03.838Z,11.25
2024-02-22T16:05:04.246Z,11.19
2024-02-22T16:07:04.665Z,11.22
2024-02-22T16:09:04.986Z,11.22
2024-02-22T16:11:05.302Z,11.15
2024-02-22T16:13:05.720Z,11.19
2024-02-22T16:15:06.092Z,11.18
2024-02-22T16:17:07.157Z,11.19
2024-02-22T16:19:07.571Z,11.18
2024-02-22T16:21:07.838Z,11.18
2024-02-22T16:23:11.608Z,11.18
2024-02-22T16:25:12.215Z,11.14
2024-02-22T16:27:12.539Z,11.17
2024-02-22T16:29:54.548Z,11.18
2024-02-22T16:31:54.910Z,11.19
2024-02-22T16:33:55.245Z,11.23
2024-02-22T16:35:55.524Z,11.17
2024-02-22T16:37:55.856Z,11.17
2024-02-22T16:39:56.135Z,11.17
2024-02-22T16:41:56.483Z,11.17
2024-02-22T16:43:56.833Z,11.17
2024-02-22T16:45:57.200Z,11.18
2024-02-22T16:47:57.593Z,11.18
2024-02-22T16:49:58.057Z,11.19
2024-02-22T16:51:58.630Z,11.18
2024-02-22T16:53:58.943Z,11.25
2024-02-22T16:55:59.275Z,11.23
2024-02-22T16:58:00.011Z,11.26
2024-02-22T17:00:01.166Z,11.23
2024-02-22T17:02:01.492Z,11.19
2024-02-22T17:04:01.966Z,11.19
2024-02-22T17:06:02.361Z,11.23
2024-02-22T17:08:02.672Z,11.22
2024-02-22T17:10:02.996Z,11.22
2024-02-22T17:12:03.429Z,11.18
2024-02-22T17:14:03.868Z,11.15
2024-02-22T17:16:04.246Z,11.15
2024-02-22T17:18:04.956Z,11.17
2024-02-22T17:20:05.436Z,11.17
2024-02-22T17:22:05.698Z,11.15
2024-02-22T17:24:06.075Z,11.18
2024-02-22T17:26:06.453Z,11.17
2024-02-22T17:28:06.758Z,11.22
2024-02-22T17:30:07.098Z,11.17
2024-02-22T17:32:07.414Z,11.19
2024-02-22T17:34:07.818Z,11.17
2024-02-22T17:36:08.154Z,11.18
2024-02-22T17:38:08.591Z,11.18
2024-02-22T17:40:08.977Z,11.22
2024-02-22T17:42:09.282Z,11.19
2024-02-22T17:44:09.692Z,11.22
2024-02-22T17:46:09.984Z,11.19
2024-02-22T17:48:10.345Z,11.18
2024-02-22T17:50:10.717Z,11.22
2024-02-22T17:52:13.344Z,11.23
2024-02-22T17:54:14.188Z,11.22
2024-02-22T17:56:14.592Z,11.15
2024-02-22T17:58:14.854Z,11.19
2024-02-22T18:00:15.141Z,11.22
2024-02-22T18:02:15.524Z,11.25
2024-02-22T18:04:15.799Z,11.22
2024-02-22T18:06:16.164Z,11.19
2024-02-22T18:08:16.521Z,11.15
2024-02-22T18:10:16.840Z,11.18
2024-02-22T18:12:17.130Z,11.15
2024-02-22T18:14:17.448Z,11.18
2024-02-22T18:16:21.226Z,11.22
2024-02-22T18:18:21.816Z,11.19
2024-02-22T18:20:22.361Z,11.26
2024-02-22T18:22:22.654Z,11.30
2024-02-22T18:24:23.033Z,11.26
2024-02-22T18:26:23.356Z,11.30
2024-02-22T18:28:23.648Z,11.29
2024-02-22T18:30:23.917Z,11.30
2024-02-22T18:32:24.232Z,11.30
2024-02-22T18:34:24.872Z,11.33
2024-02-22T18:36:25.205Z,11.30
2024-02-22T18:38:25.599Z,11.35
2024-02-22T18:40:25.955Z,11.35
2024-02-22T18:42:26.296Z,11.35
2024-02-22T18:44:26.662Z,11.40
2024-02-22T18:46:26.920Z,11.41
2024-02-22T18:48:27.366Z,11.43
2024-02-22T18:50:27.715Z,11.45
2024-02-22T18:52:28.043Z,11.47
2024-02-22T18:54:28.359Z,11.48
2024-02-22T18:56:28.696Z,11.52
2024-02-22T18:58:28.988Z,11.55
2024-02-22T19:00:29.236Z,11.66
2024-02-22T19:02:29.636Z,11.72
2024-02-22T19:04:29.998Z,11.80
2024-02-22T19:06:30.383Z,11.88
2024-02-22T19:08:30.701Z,11.83
2024-02-22T19:10:30.989Z,11.83
2024-02-22T19:12:31.328Z,11.86
2024-02-22T19:14:31.651Z,11.86
2024-02-22T19:16:31.963Z,11.90
2024-02-22T19:18:32.224Z,11.86
2024-02-22T19:20:32.556Z,11.83
2024-02-22T19:22:32.875Z,11.70
2024-02-22T19:24:33.172Z,11.75
2024-02-22T19:26:33.500Z,11.73
2024-02-22T19:28:33.783Z,11.70
2024-02-22T19:30:34.086Z,11.72
2024-02-22T19:32:34.428Z,11.73
2024-02-22T19:34:34.813Z,11.72
2024-02-22T19:36:42.216Z,11.73
2024-02-22T19:38:40.355Z,11.69
2024-02-22T19:40:40.696Z,11.68
2024-02-22T19:42:45.868Z,11.73
2024-02-22T19:44:46.267Z,11.72
2024-02-22T19:46:46.552Z,11.83
2024-02-22T19:48:46.886Z,11.81
2024-02-22T19:50:47.264Z,11.80
2024-02-22T19:52:47.650Z,11.78
2024-02-22T19:54:47.943Z,11.84
2024-02-22T19:56:48.214Z,11.81
2024-02-22T19:58:48.537Z,11.81
2024-02-22T20:00:48.915Z,11.88
2024-02-22T20:02:49.159Z,11.84
2024-02-22T20:04:49.618Z,11.84
2024-02-22T20:06:49.990Z,11.87
2024-02-22T20:08:50.429Z,11.86
2024-02-22T20:10:50.784Z,11.94
2024-02-22T20:12:51.122Z,11.97
2024-02-22T20:14:51.481Z,11.94
2024-02-22T20:16:51.791Z,12.02
2024-02-22T20:18:52.250Z,11.94
2024-02-22T20:20:57.250Z,12.02
2024-02-22T20:22:57.589Z,12.02
2024-02-22T20:24:57.918Z,11.95
2024-02-22T20:26:58.229Z,12.04
2024-02-22T20:28:58.521Z,12.03
2024-02-22T20:30:58.832Z,12.00
2024-02-22T20:32:59.136Z,11.97
2024-02-22T20:35:06.940Z,12.02
2024-02-22T20:37:04.607Z,12.02
2024-02-22T20:39:04.876Z,12.03
2024-02-22T20:41:05.271Z,12.03
2024-02-22T20:43:05.535Z,12.10
2024-02-22T20:45:05.819Z,12.12
2024-02-22T20:47:06.155Z,12.18
2024-02-22T20:49:06.414Z,12.12
2024-02-22T20:51:06.713Z,12.17
2024-02-22T20:53:07.045Z,12.17
2024-02-22T20:55:07.365Z,12.17
2024-02-22T20:57:07.712Z,12.20
2024-02-22T20:59:08.083Z,12.20
2024-02-22T21:01:08.448Z,12.18
2024-02-22T21:03:08.701Z,12.15
2024-02-22T21:05:09.046Z,12.17
2024-02-22T21:07:09.407Z,12.22
2024-02-22T21:09:09.638Z,12.21
2024-02-22T21:11:09.989Z,12.25
2024-02-22T21:13:10.267Z,12.22
2024-02-22T21:15:10.579Z,12.22
2024-02-22T21:17:10.907Z,12.17
2024-02-22T21:19:11.204Z,12.09
2024-02-22T21:21:11.505Z,12.13
2024-02-22T21:23:11.797Z,12.06
2024-02-22T21:25:12.077Z,12.00
2024-02-22T21:27:12.376Z,11.90
2024-02-22T21:29:12.735Z,11.84
2024-02-22T21:31:13.045Z,11.75
2024-02-22T21:33:13.348Z,11.62
2024-02-22T21:35:13.696Z,11.55
2024-02-22T21:37:14.005Z,11.43
2024-02-22T21:39:14.341Z,11.32
2024-02-22T21:41:14.710Z,11.27
2024-02-22T21:43:15.136Z,11.18
2024-02-22T21:45:15.448Z,11.14
2024-02-22T21:47:15.794Z,11.05
2024-02-22T21:49:17.014Z,11.04
2024-02-22T21:51:17.288Z,11.04
2024-02-22T21:53:17.614Z,10.94
2024-02-22T21:55:17.889Z,10.86
2024-02-22T21:57:18.207Z,10.78
2024-02-22T21:59:18.562Z,10.68
2024-02-22T22:01:18.886Z,10.59
2024-02-22T22:03:19.229Z,10.57
2024-02-22T22:05:19.568Z,10.56
2024-02-22T22:07:19.863Z,10.51
2024-02-22T22:09:20.127Z,10.44
2024-02-22T22:11:20.633Z,10.35
2024-02-22T22:13:20.957Z,10.34
2024-02-22T22:15:21.285Z,10.33
2024-02-22T22:17:21.681Z,10.30
2024-02-22T22:19:22.031Z,10.26
2024-02-22T22:21:28.817Z,10.20
2024-02-22T22:23:27.485Z,10.17
2024-02-22T22:25:27.786Z,10.15
2024-02-22T22:27:28.081Z,10.12
2024-02-22T22:29:28.441Z,10.07
2024-02-22T22:31:28.731Z,10.10
2024-02-22T22:33:29.095Z,10.04
2024-02-22T22:35:29.639Z,10.01
2024-02-22T22:37:29.906Z,9.98
2024-02-22T22:39:30.176Z,9.86
2024-02-22T22:41:31.085Z,9.87
2024-02-22T22:43:31.359Z,9.86
2024-02-22T22:45:31.699Z,9.84
2024-02-22T22:47:32.005Z,9.80
2024-02-22T22:49:32.273Z,9.74
2024-02-22T22:51:32.566Z,9.73
2024-02-22T22:53:32.831Z,9.69
2024-02-22T22:55:33.104Z,9.65
2024-02-22T22:57:33.408Z,9.64
2024-02-22T22:59:33.711Z,9.59
2024-02-22T23:01:34.000Z,9.55
2024-02-22T23:03:34.333Z,9.59
2024-02-22T23:05:34.794Z,9.51
2024-02-22T23:07:35.198Z,9.50
2024-02-22T23:09:35.416Z,9.46
2024-02-22T23:11:35.800Z,9.47
2024-02-22T23:13:36.087Z,9.48
2024-02-22T23:15:36.405Z,9.40
2024-02-22T23:17:36.797Z,9.40
2024-02-22T23:19:37.093Z,9.37
2024-02-22T23:21:37.565Z,9.36
2024-02-22T23:23:37.939Z,9.39
2024-02-22T23:25:38.238Z,9.37
2024-02-22T23:27:38.538Z,9.36
2024-02-22T23:29:38.850Z,9.31
2024-02-22T23:31:39.099Z,9.28
2024-02-22T23:33:39.468Z,9.29
2024-02-22T23:35:39.797Z,9.23
2024-02-22T23:37:40.129Z,9.16
2024-02-22T23:39:42.972Z,9.14
2024-02-22T23:41:44.625Z,9.13
2024-02-22T23:43:44.963Z,9.08
2024-02-22T23:45:45.220Z,9.08
2024-02-22T23:47:45.524Z,9.04
2024-02-22T23:49:45.853Z,9.03
2024-02-22T23:51:46.168Z,9.04
2024-02-22T23:53:46.457Z,9.13
2024-02-22T23:55:46.787Z,9.19
2024-02-22T23:57:47.070Z,9.22
2024-02-22T23:59:47.371Z,9.21
